sensor_id;sensor_type;location;lat;lon;timestamp;P1;durP1;ratioP1;P2;durP2;ratioP2
60488;SDS011;46331;49.252;8.904;2023-04-16T00:00:36;12.60;;;6.37;;
60488;SDS011;46331;49.252;8.904;2023-04-16T00:01:17;12.10;;;6.00;;
60488;SDS011;46331;49.252;8.904;2023-04-16T00:01:57;20.83;;;8.55;;
60488;SDS011;46331;49.252;8.904;2023-04-16T00:02:38;22.10;;;9.73;;
60488;SDS011;46331;49.252;8.904;2023-04-16T00:03:18;21.92;;;8.80;;
60488;SDS011;46331;49.252;8.904;2023-04-16T00:03:59;15.73;;;7.53;;
60488;SDS011;46331;49.252;8.904;2023-04-16T00:04:39;15.02;;;6.80;;
60488;SDS011;46331;49.252;8.904;2023-04-16T00:05:20;13.93;;;6.80;;
60488;SDS011;46331;49.252;8.904;2023-04-16T00:06:01;15.18;;;7.85;;
60488;SDS011;46331;49.252;8.904;2023-04-16T00:06:42;16.00;;;7.80;;
60488;SDS011;46331;49.252;8.904;2023-04-16T00:07:23;57.03;;;24.93;;
60488;SDS011;46331;49.252;8.904;2023-04-16T00:08:03;62.00;;;27.83;;
60488;SDS011;46331;49.252;8.904;2023-04-16T00:08:44;49.97;;;21.73;;
60488;SDS011;46331;49.252;8.904;2023-04-16T00:09:24;33.67;;;15.67;;
60488;SDS011;46331;49.252;8.904;2023-04-16T00:10:05;23.87;;;10.60;;
60488;SDS011;46331;49.252;8.904;2023-04-16T00:10:46;42.55;;;19.52;;
60488;SDS011;46331;49.252;8.904;2023-04-16T00:11:27;49.57;;;21.10;;
60488;SDS011;46331;49.252;8.904;2023-04-16T00:12:07;39.55;;;17.33;;
60488;SDS011;46331;49.252;8.904;2023-04-16T00:12:48;30.63;;;14.67;;
60488;SDS011;46331;49.252;8.904;2023-04-16T00:13:28;24.67;;;11.60;;
60488;SDS011;46331;49.252;8.904;2023-04-16T00:14:09;24.57;;;11.67;;
60488;SDS011;46331;49.252;8.904;2023-04-16T00:14:49;23.70;;;10.30;;
60488;SDS011;46331;49.252;8.904;2023-04-16T00:15:30;17.23;;;9.65;;
60488;SDS011;46331;49.252;8.904;2023-04-16T00:16:10;15.43;;;8.20;;
60488;SDS011;46331;49.252;8.904;2023-04-16T00:16:51;15.07;;;7.93;;
60488;SDS011;46331;49.252;8.904;2023-04-16T00:17:31;12.70;;;7.07;;
60488;SDS011;46331;49.252;8.904;2023-04-16T00:18:12;9.53;;;5.70;;
60488;SDS011;46331;49.252;8.904;2023-04-16T00:18:52;9.30;;;5.15;;
60488;SDS011;46331;49.252;8.904;2023-04-16T00:19:33;10.33;;;5.47;;
60488;SDS011;46331;49.252;8.904;2023-04-16T00:20:13;9.40;;;5.10;;
60488;SDS011;46331;49.252;8.904;2023-04-16T00:20:54;9.77;;;6.07;;
60488;SDS011;46331;49.252;8.904;2023-04-16T00:21:35;9.18;;;5.68;;
60488;SDS011;46331;49.252;8.904;2023-04-16T00:22:15;10.43;;;6.90;;
60488;SDS011;46331;49.252;8.904;2023-04-16T00:22:56;10.98;;;6.68;;
60488;SDS011;46331;49.252;8.904;2023-04-16T00:23:36;10.17;;;6.57;;
60488;SDS011;46331;49.252;8.904;2023-04-16T00:24:17;11.95;;;6.15;;
60488;SDS011;46331;49.252;8.904;2023-04-16T00:24:58;10.33;;;6.00;;
60488;SDS011;46331;49.252;8.904;2023-04-16T00:25:38;8.63;;;5.38;;
60488;SDS011;46331;49.252;8.904;2023-04-16T00:26:19;9.40;;;5.30;;
60488;SDS011;46331;49.252;8.904;2023-04-16T00:27:00;7.67;;;4.57;;
60488;SDS011;46331;49.252;8.904;2023-04-16T00:27:41;10.43;;;4.60;;
60488;SDS011;46331;49.252;8.904;2023-04-16T00:28:21;8.13;;;4.30;;
60488;SDS011;46331;49.252;8.904;2023-04-16T00:29:02;9.30;;;4.78;;
60488;SDS011;46331;49.252;8.904;2023-04-16T00:29:42;8.03;;;4.17;;
60488;SDS011;46331;49.252;8.904;2023-04-16T00:30:23;7.63;;;4.32;;
60488;SDS011;46331;49.252;8.904;2023-04-16T00:31:03;9.40;;;4.50;;
60488;SDS011;46331;49.252;8.904;2023-04-16T00:31:44;6.83;;;3.73;;
60488;SDS011;46331;49.252;8.904;2023-04-16T00:32:24;8.18;;;4.20;;
60488;SDS011;46331;49.252;8.904;2023-04-16T00:33:05;7.53;;;3.92;;
60488;SDS011;46331;49.252;8.904;2023-04-16T00:33:46;7.10;;;3.90;;
60488;SDS011;46331;49.252;8.904;2023-04-16T00:34:26;7.88;;;4.15;;
60488;SDS011;46331;49.252;8.904;2023-04-16T00:35:07;8.37;;;4.27;;
60488;SDS011;46331;49.252;8.904;2023-04-16T00:35:47;9.43;;;4.93;;
60488;SDS011;46331;49.252;8.904;2023-04-16T00:36:28;8.15;;;4.18;;
60488;SDS011;46331;49.252;8.904;2023-04-16T00:37:09;8.32;;;4.22;;
60488;SDS011;46331;49.252;8.904;2023-04-16T00:37:49;7.43;;;4.07;;
60488;SDS011;46331;49.252;8.904;2023-04-16T00:38:30;9.13;;;4.60;;
60488;SDS011;46331;49.252;8.904;2023-04-16T00:39:11;7.05;;;3.65;;
60488;SDS011;46331;49.252;8.904;2023-04-16T00:39:52;7.03;;;4.00;;
60488;SDS011;46331;49.252;8.904;2023-04-16T00:40:32;7.93;;;4.13;;
60488;SDS011;46331;49.252;8.904;2023-04-16T00:41:13;7.00;;;3.60;;
60488;SDS011;46331;49.252;8.904;2023-04-16T00:41:53;8.57;;;4.20;;
60488;SDS011;46331;49.252;8.904;2023-04-16T00:42:34;8.70;;;4.20;;
60488;SDS011;46331;49.252;8.904;2023-04-16T00:43:20;8.13;;;4.00;;
60488;SDS011;46331;49.252;8.904;2023-04-16T00:44:02;7.57;;;3.65;;
60488;SDS011;46331;49.252;8.904;2023-04-16T00:44:43;7.47;;;4.17;;
60488;SDS011;46331;49.252;8.904;2023-04-16T00:45:23;9.38;;;4.78;;
60488;SDS011;46331;49.252;8.904;2023-04-16T00:46:04;7.67;;;4.47;;
60488;SDS011;46331;49.252;8.904;2023-04-16T00:46:46;8.15;;;4.40;;
60488;SDS011;46331;49.252;8.904;2023-04-16T00:47:26;7.23;;;3.77;;
60488;SDS011;46331;49.252;8.904;2023-04-16T00:48:08;7.22;;;3.72;;
60488;SDS011;46331;49.252;8.904;2023-04-16T00:48:48;8.30;;;4.25;;
60488;SDS011;46331;49.252;8.904;2023-04-16T00:49:30;7.95;;;4.25;;
60488;SDS011;46331;49.252;8.904;2023-04-16T00:50:11;8.67;;;3.97;;
60488;SDS011;46331;49.252;8.904;2023-04-16T00:50:52;8.50;;;4.93;;
60488;SDS011;46331;49.252;8.904;2023-04-16T00:51:34;7.68;;;4.18;;
60488;SDS011;46331;49.252;8.904;2023-04-16T00:52:15;8.20;;;4.25;;
60488;SDS011;46331;49.252;8.904;2023-04-16T00:52:55;7.80;;;4.10;;
60488;SDS011;46331;49.252;8.904;2023-04-16T00:53:37;8.98;;;4.70;;
60488;SDS011;46331;49.252;8.904;2023-04-16T00:54:18;9.00;;;3.92;;
60488;SDS011;46331;49.252;8.904;2023-04-16T00:54:59;7.78;;;4.00;;
60488;SDS011;46331;49.252;8.904;2023-04-16T00:55:40;8.18;;;4.43;;
60488;SDS011;46331;49.252;8.904;2023-04-16T00:56:20;8.43;;;4.10;;
60488;SDS011;46331;49.252;8.904;2023-04-16T00:57:03;8.23;;;4.05;;
60488;SDS011;46331;49.252;8.904;2023-04-16T00:57:44;7.47;;;4.18;;
60488;SDS011;46331;49.252;8.904;2023-04-16T00:58:25;7.03;;;4.00;;
60488;SDS011;46331;49.252;8.904;2023-04-16T00:59:05;7.20;;;4.00;;
60488;SDS011;46331;49.252;8.904;2023-04-16T00:59:46;8.95;;;4.30;;
60488;SDS011;46331;49.252;8.904;2023-04-16T01:00:27;7.93;;;4.30;;
60488;SDS011;46331;49.252;8.904;2023-04-16T01:01:07;7.75;;;4.20;;
60488;SDS011;46331;49.252;8.904;2023-04-16T01:01:48;8.30;;;3.80;;
60488;SDS011;46331;49.252;8.904;2023-04-16T01:02:28;9.23;;;4.00;;
60488;SDS011;46331;49.252;8.904;2023-04-16T01:03:09;9.02;;;4.28;;
60488;SDS011;46331;49.252;8.904;2023-04-16T01:03:50;8.32;;;4.65;;
60488;SDS011;46331;49.252;8.904;2023-04-16T01:04:32;8.32;;;4.90;;
60488;SDS011;46331;49.252;8.904;2023-04-16T01:05:13;8.55;;;4.28;;
60488;SDS011;46331;49.252;8.904;2023-04-16T01:05:54;8.00;;;4.33;;
60488;SDS011;46331;49.252;8.904;2023-04-16T01:06:34;7.22;;;3.80;;
60488;SDS011;46331;49.252;8.904;2023-04-16T01:07:15;8.02;;;4.22;;
60488;SDS011;46331;49.252;8.904;2023-04-16T01:07:59;8.00;;;4.30;;
60488;SDS011;46331;49.252;8.904;2023-04-16T01:08:40;8.10;;;4.20;;
60488;SDS011;46331;49.252;8.904;2023-04-16T01:09:21;7.20;;;4.07;;
60488;SDS011;46331;49.252;8.904;2023-04-16T01:10:02;7.40;;;3.67;;
60488;SDS011;46331;49.252;8.904;2023-04-16T01:10:43;7.38;;;3.50;;
60488;SDS011;46331;49.252;8.904;2023-04-16T01:11:24;7.85;;;4.15;;
60488;SDS011;46331;49.252;8.904;2023-04-16T01:12:05;8.68;;;4.03;;
60488;SDS011;46331;49.252;8.904;2023-04-16T01:12:45;6.70;;;3.33;;
60488;SDS011;46331;49.252;8.904;2023-04-16T01:13:26;7.50;;;3.63;;
60488;SDS011;46331;49.252;8.904;2023-04-16T01:14:06;7.35;;;3.75;;
60488;SDS011;46331;49.252;8.904;2023-04-16T01:14:47;7.67;;;3.83;;
60488;SDS011;46331;49.252;8.904;2023-04-16T01:15:28;7.00;;;3.65;;
60488;SDS011;46331;49.252;8.904;2023-04-16T01:16:09;6.72;;;3.88;;
60488;SDS011;46331;49.252;8.904;2023-04-16T01:16:51;7.82;;;4.03;;
60488;SDS011;46331;49.252;8.904;2023-04-16T01:17:32;7.57;;;4.23;;
60488;SDS011;46331;49.252;8.904;2023-04-16T01:18:13;7.40;;;3.90;;
60488;SDS011;46331;49.252;8.904;2023-04-16T01:18:55;7.75;;;4.10;;
60488;SDS011;46331;49.252;8.904;2023-04-16T01:19:35;8.13;;;4.00;;
60488;SDS011;46331;49.252;8.904;2023-04-16T01:20:16;8.57;;;4.40;;
60488;SDS011;46331;49.252;8.904;2023-04-16T01:20:57;7.55;;;4.20;;
60488;SDS011;46331;49.252;8.904;2023-04-16T01:21:37;8.03;;;4.20;;
60488;SDS011;46331;49.252;8.904;2023-04-16T01:22:18;8.40;;;4.27;;
60488;SDS011;46331;49.252;8.904;2023-04-16T01:22:58;8.93;;;4.18;;
60488;SDS011;46331;49.252;8.904;2023-04-16T01:23:39;8.07;;;4.63;;
60488;SDS011;46331;49.252;8.904;2023-04-16T01:24:20;7.60;;;4.00;;
60488;SDS011;46331;49.252;8.904;2023-04-16T01:25:00;7.83;;;4.43;;
60488;SDS011;46331;49.252;8.904;2023-04-16T01:25:41;7.55;;;4.15;;
60488;SDS011;46331;49.252;8.904;2023-04-16T01:26:21;7.50;;;3.97;;
60488;SDS011;46331;49.252;8.904;2023-04-16T01:27:02;7.88;;;4.15;;
60488;SDS011;46331;49.252;8.904;2023-04-16T01:27:42;6.93;;;3.70;;
60488;SDS011;46331;49.252;8.904;2023-04-16T01:28:23;6.82;;;3.70;;
60488;SDS011;46331;49.252;8.904;2023-04-16T01:29:04;7.73;;;4.20;;
60488;SDS011;46331;49.252;8.904;2023-04-16T01:29:44;7.67;;;4.27;;
60488;SDS011;46331;49.252;8.904;2023-04-16T01:30:25;7.70;;;4.20;;
60488;SDS011;46331;49.252;8.904;2023-04-16T01:31:16;8.10;;;4.20;;
60488;SDS011;46331;49.252;8.904;2023-04-16T01:32:08;7.38;;;3.92;;
60488;SDS011;46331;49.252;8.904;2023-04-16T01:32:50;7.70;;;3.83;;
60488;SDS011;46331;49.252;8.904;2023-04-16T01:33:31;7.18;;;3.70;;
60488;SDS011;46331;49.252;8.904;2023-04-16T01:34:11;6.93;;;3.70;;
60488;SDS011;46331;49.252;8.904;2023-04-16T01:34:52;7.10;;;3.65;;
60488;SDS011;46331;49.252;8.904;2023-04-16T01:35:32;8.50;;;4.40;;
60488;SDS011;46331;49.252;8.904;2023-04-16T01:36:13;6.93;;;3.90;;
60488;SDS011;46331;49.252;8.904;2023-04-16T01:36:54;7.67;;;4.13;;
60488;SDS011;46331;49.252;8.904;2023-04-16T01:37:34;8.60;;;4.07;;
60488;SDS011;46331;49.252;8.904;2023-04-16T01:38:15;7.70;;;3.83;;
60488;SDS011;46331;49.252;8.904;2023-04-16T01:38:56;8.10;;;3.88;;
60488;SDS011;46331;49.252;8.904;2023-04-16T01:39:37;8.15;;;4.47;;
60488;SDS011;46331;49.252;8.904;2023-04-16T01:40:18;8.93;;;4.27;;
60488;SDS011;46331;49.252;8.904;2023-04-16T01:40:58;8.00;;;4.53;;
60488;SDS011;46331;49.252;8.904;2023-04-16T01:41:39;7.57;;;4.07;;
60488;SDS011;46331;49.252;8.904;2023-04-16T01:42:20;9.35;;;4.93;;
60488;SDS011;46331;49.252;8.904;2023-04-16T01:43:02;8.05;;;4.20;;
60488;SDS011;46331;49.252;8.904;2023-04-16T01:43:43;7.22;;;3.75;;
60488;SDS011;46331;49.252;8.904;2023-04-16T01:44:24;7.33;;;4.07;;
60488;SDS011;46331;49.252;8.904;2023-04-16T01:45:04;8.53;;;4.30;;
60488;SDS011;46331;49.252;8.904;2023-04-16T01:45:46;7.68;;;3.78;;
60488;SDS011;46331;49.252;8.904;2023-04-16T01:46:26;7.88;;;4.15;;
60488;SDS011;46331;49.252;8.904;2023-04-16T01:47:08;9.55;;;4.70;;
60488;SDS011;46331;49.252;8.904;2023-04-16T01:47:49;7.90;;;4.30;;
60488;SDS011;46331;49.252;8.904;2023-04-16T01:48:31;11.20;;;5.10;;
60488;SDS011;46331;49.252;8.904;2023-04-16T01:49:13;8.27;;;4.50;;
60488;SDS011;46331;49.252;8.904;2023-04-16T01:49:55;8.13;;;4.40;;
60488;SDS011;46331;49.252;8.904;2023-04-16T01:50:36;7.65;;;4.20;;
60488;SDS011;46331;49.252;8.904;2023-04-16T01:51:16;8.93;;;4.43;;
60488;SDS011;46331;49.252;8.904;2023-04-16T01:51:58;8.52;;;4.57;;
60488;SDS011;46331;49.252;8.904;2023-04-16T01:52:38;9.73;;;4.60;;
60488;SDS011;46331;49.252;8.904;2023-04-16T01:53:19;8.52;;;4.45;;
60488;SDS011;46331;49.252;8.904;2023-04-16T01:54:00;8.77;;;5.13;;
60488;SDS011;46331;49.252;8.904;2023-04-16T01:54:40;8.93;;;5.00;;
60488;SDS011;46331;49.252;8.904;2023-04-16T01:55:21;8.93;;;4.68;;
60488;SDS011;46331;49.252;8.904;2023-04-16T01:56:02;10.63;;;5.67;;
60488;SDS011;46331;49.252;8.904;2023-04-16T01:56:42;8.55;;;4.53;;
60488;SDS011;46331;49.252;8.904;2023-04-16T01:57:23;10.97;;;5.00;;
60488;SDS011;46331;49.252;8.904;2023-04-16T01:58:03;9.87;;;5.10;;
60488;SDS011;46331;49.252;8.904;2023-04-16T01:58:48;14.10;;;5.30;;
60488;SDS011;46331;49.252;8.904;2023-04-16T01:59:30;9.38;;;5.10;;
60488;SDS011;46331;49.252;8.904;2023-04-16T02:00:11;10.07;;;5.13;;
60488;SDS011;46331;49.252;8.904;2023-04-16T02:01:01;9.80;;;5.00;;
60488;SDS011;46331;49.252;8.904;2023-04-16T02:01:42;10.13;;;4.87;;
60488;SDS011;46331;49.252;8.904;2023-04-16T02:02:23;10.00;;;4.95;;
60488;SDS011;46331;49.252;8.904;2023-04-16T02:03:08;9.85;;;5.28;;
60488;SDS011;46331;49.252;8.904;2023-04-16T02:03:50;9.38;;;5.10;;
60488;SDS011;46331;49.252;8.904;2023-04-16T02:04:31;10.85;;;5.93;;
60488;SDS011;46331;49.252;8.904;2023-04-16T02:05:12;11.67;;;6.20;;
60488;SDS011;46331;49.252;8.904;2023-04-16T02:05:52;11.70;;;5.85;;
60488;SDS011;46331;49.252;8.904;2023-04-16T02:06:33;10.30;;;5.47;;
60488;SDS011;46331;49.252;8.904;2023-04-16T02:07:15;8.88;;;5.00;;
60488;SDS011;46331;49.252;8.904;2023-04-16T02:07:55;9.23;;;5.00;;
60488;SDS011;46331;49.252;8.904;2023-04-16T02:08:36;10.52;;;5.88;;
60488;SDS011;46331;49.252;8.904;2023-04-16T02:09:16;10.63;;;5.53;;
60488;SDS011;46331;49.252;8.904;2023-04-16T02:09:57;12.80;;;5.45;;
60488;SDS011;46331;49.252;8.904;2023-04-16T02:10:38;11.32;;;6.05;;
60488;SDS011;46331;49.252;8.904;2023-04-16T02:11:19;11.03;;;5.77;;
60488;SDS011;46331;49.252;8.904;2023-04-16T02:12:00;9.57;;;5.22;;
60488;SDS011;46331;49.252;8.904;2023-04-16T02:12:42;10.70;;;5.95;;
60488;SDS011;46331;49.252;8.904;2023-04-16T02:13:23;10.40;;;5.75;;
60488;SDS011;46331;49.252;8.904;2023-04-16T02:14:05;11.40;;;5.50;;
60488;SDS011;46331;49.252;8.904;2023-04-16T02:14:47;10.83;;;5.60;;
60488;SDS011;46331;49.252;8.904;2023-04-16T02:15:30;11.88;;;6.43;;
60488;SDS011;46331;49.252;8.904;2023-04-16T02:16:10;12.20;;;5.80;;
60488;SDS011;46331;49.252;8.904;2023-04-16T02:17:04;10.52;;;5.88;;
60488;SDS011;46331;49.252;8.904;2023-04-16T02:17:50;10.00;;;5.45;;
60488;SDS011;46331;49.252;8.904;2023-04-16T02:18:36;11.53;;;6.53;;
60488;SDS011;46331;49.252;8.904;2023-04-16T02:19:17;12.27;;;6.55;;
60488;SDS011;46331;49.252;8.904;2023-04-16T02:19:58;12.75;;;6.32;;
60488;SDS011;46331;49.252;8.904;2023-04-16T02:20:39;10.83;;;5.63;;
60488;SDS011;46331;49.252;8.904;2023-04-16T02:21:23;11.23;;;6.38;;
60488;SDS011;46331;49.252;8.904;2023-04-16T02:22:05;11.02;;;5.70;;
60488;SDS011;46331;49.252;8.904;2023-04-16T02:22:46;13.32;;;6.95;;
60488;SDS011;46331;49.252;8.904;2023-04-16T02:23:30;12.82;;;6.95;;
60488;SDS011;46331;49.252;8.904;2023-04-16T02:24:12;11.20;;;6.10;;
60488;SDS011;46331;49.252;8.904;2023-04-16T02:24:54;12.80;;;6.60;;
60488;SDS011;46331;49.252;8.904;2023-04-16T02:25:44;11.53;;;6.30;;
60488;SDS011;46331;49.252;8.904;2023-04-16T02:26:26;13.07;;;6.43;;
60488;SDS011;46331;49.252;8.904;2023-04-16T02:27:11;12.02;;;6.55;;
60488;SDS011;46331;49.252;8.904;2023-04-16T02:27:53;11.68;;;6.38;;
60488;SDS011;46331;49.252;8.904;2023-04-16T02:28:48;12.70;;;6.57;;
60488;SDS011;46331;49.252;8.904;2023-04-16T02:29:31;13.95;;;7.13;;
60488;SDS011;46331;49.252;8.904;2023-04-16T02:30:19;12.82;;;6.63;;
60488;SDS011;46331;49.252;8.904;2023-04-16T02:31:00;11.67;;;6.60;;
60488;SDS011;46331;49.252;8.904;2023-04-16T02:31:44;11.50;;;6.32;;
60488;SDS011;46331;49.252;8.904;2023-04-16T02:32:26;13.13;;;7.18;;
60488;SDS011;46331;49.252;8.904;2023-04-16T02:33:08;11.60;;;6.17;;
60488;SDS011;46331;49.252;8.904;2023-04-16T02:33:52;12.50;;;6.82;;
60488;SDS011;46331;49.252;8.904;2023-04-16T02:34:34;12.40;;;6.88;;
60488;SDS011;46331;49.252;8.904;2023-04-16T02:35:15;12.98;;;6.38;;
60488;SDS011;46331;49.252;8.904;2023-04-16T02:35:55;11.50;;;5.80;;
60488;SDS011;46331;49.252;8.904;2023-04-16T02:36:36;11.43;;;6.43;;
60488;SDS011;46331;49.252;8.904;2023-04-16T02:37:16;11.97;;;6.40;;
60488;SDS011;46331;49.252;8.904;2023-04-16T02:37:58;12.07;;;6.17;;
60488;SDS011;46331;49.252;8.904;2023-04-16T02:38:38;10.75;;;6.18;;
60488;SDS011;46331;49.252;8.904;2023-04-16T02:39:20;12.20;;;6.40;;
60488;SDS011;46331;49.252;8.904;2023-04-16T02:40:01;12.27;;;6.53;;
60488;SDS011;46331;49.252;8.904;2023-04-16T02:40:41;11.20;;;6.13;;
60488;SDS011;46331;49.252;8.904;2023-04-16T02:41:23;11.20;;;6.00;;
60488;SDS011;46331;49.252;8.904;2023-04-16T02:42:04;11.07;;;6.03;;
60488;SDS011;46331;49.252;8.904;2023-04-16T02:42:44;13.35;;;6.40;;
60488;SDS011;46331;49.252;8.904;2023-04-16T02:43:25;14.13;;;6.68;;
60488;SDS011;46331;49.252;8.904;2023-04-16T02:44:05;13.20;;;6.80;;
60488;SDS011;46331;49.252;8.904;2023-04-16T02:44:46;10.90;;;5.53;;
60488;SDS011;46331;49.252;8.904;2023-04-16T02:45:27;11.02;;;6.10;;
60488;SDS011;46331;49.252;8.904;2023-04-16T02:46:07;13.00;;;6.13;;
60488;SDS011;46331;49.252;8.904;2023-04-16T02:46:48;11.88;;;5.93;;
60488;SDS011;46331;49.252;8.904;2023-04-16T02:47:29;11.50;;;5.88;;
60488;SDS011;46331;49.252;8.904;2023-04-16T02:48:10;9.63;;;5.33;;
60488;SDS011;46331;49.252;8.904;2023-04-16T02:48:50;9.40;;;5.07;;
60488;SDS011;46331;49.252;8.904;2023-04-16T02:49:31;11.03;;;5.80;;
60488;SDS011;46331;49.252;8.904;2023-04-16T02:50:12;10.15;;;5.85;;
60488;SDS011;46331;49.252;8.904;2023-04-16T02:50:52;10.82;;;5.60;;
60488;SDS011;46331;49.252;8.904;2023-04-16T02:51:33;11.17;;;5.53;;
60488;SDS011;46331;49.252;8.904;2023-04-16T02:52:14;12.53;;;6.40;;
60488;SDS011;46331;49.252;8.904;2023-04-16T02:52:54;11.07;;;6.40;;
60488;SDS011;46331;49.252;8.904;2023-04-16T02:53:35;11.00;;;5.40;;
60488;SDS011;46331;49.252;8.904;2023-04-16T02:54:15;9.75;;;5.63;;
60488;SDS011;46331;49.252;8.904;2023-04-16T02:54:56;10.98;;;6.40;;
60488;SDS011;46331;49.252;8.904;2023-04-16T02:55:37;14.20;;;6.67;;
60488;SDS011;46331;49.252;8.904;2023-04-16T02:56:17;11.27;;;6.53;;
60488;SDS011;46331;49.252;8.904;2023-04-16T02:56:58;13.77;;;6.72;;
60488;SDS011;46331;49.252;8.904;2023-04-16T02:57:38;10.03;;;6.27;;
60488;SDS011;46331;49.252;8.904;2023-04-16T02:58:20;11.95;;;6.28;;
60488;SDS011;46331;49.252;8.904;2023-04-16T02:59:01;11.73;;;5.95;;
60488;SDS011;46331;49.252;8.904;2023-04-16T02:59:42;11.38;;;6.13;;
60488;SDS011;46331;49.252;8.904;2023-04-16T03:00:22;11.47;;;5.77;;
60488;SDS011;46331;49.252;8.904;2023-04-16T03:01:03;10.40;;;5.67;;
60488;SDS011;46331;49.252;8.904;2023-04-16T03:01:44;12.50;;;6.10;;
60488;SDS011;46331;49.252;8.904;2023-04-16T03:02:24;12.25;;;6.18;;
60488;SDS011;46331;49.252;8.904;2023-04-16T03:03:06;15.50;;;7.40;;
60488;SDS011;46331;49.252;8.904;2023-04-16T03:03:47;15.43;;;7.47;;
60488;SDS011;46331;49.252;8.904;2023-04-16T03:04:27;13.23;;;6.32;;
60488;SDS011;46331;49.252;8.904;2023-04-16T03:05:08;49.03;;;17.57;;
60488;SDS011;46331;49.252;8.904;2023-04-16T03:05:49;66.85;;;22.75;;
60488;SDS011;46331;49.252;8.904;2023-04-16T03:06:30;61.75;;;21.33;;
60488;SDS011;46331;49.252;8.904;2023-04-16T03:07:10;42.40;;;15.20;;
60488;SDS011;46331;49.252;8.904;2023-04-16T03:07:52;49.78;;;18.17;;
60488;SDS011;46331;49.252;8.904;2023-04-16T03:08:35;76.20;;;26.77;;
60488;SDS011;46331;49.252;8.904;2023-04-16T03:09:16;46.40;;;17.53;;
60488;SDS011;46331;49.252;8.904;2023-04-16T03:09:56;102.13;;;34.80;;
60488;SDS011;46331;49.252;8.904;2023-04-16T03:10:37;127.60;;;41.08;;
60488;SDS011;46331;49.252;8.904;2023-04-16T03:11:18;112.20;;;36.77;;
60488;SDS011;46331;49.252;8.904;2023-04-16T03:11:59;122.25;;;38.28;;
60488;SDS011;46331;49.252;8.904;2023-04-16T03:12:43;106.93;;;36.92;;
60488;SDS011;46331;49.252;8.904;2023-04-16T03:13:24;118.13;;;37.23;;
60488;SDS011;46331;49.252;8.904;2023-04-16T03:14:05;114.68;;;36.92;;
60488;SDS011;46331;49.252;8.904;2023-04-16T03:14:45;69.07;;;29.30;;
60488;SDS011;46331;49.252;8.904;2023-04-16T03:15:26;127.65;;;58.17;;
60488;SDS011;46331;49.252;8.904;2023-04-16T03:16:06;65.43;;;30.77;;
60488;SDS011;46331;49.252;8.904;2023-04-16T03:16:47;53.70;;;26.25;;
60488;SDS011;46331;49.252;8.904;2023-04-16T03:17:27;33.63;;;17.73;;
60488;SDS011;46331;49.252;8.904;2023-04-16T03:18:09;33.70;;;18.25;;
60488;SDS011;46331;49.252;8.904;2023-04-16T03:18:49;15.55;;;8.15;;
60488;SDS011;46331;49.252;8.904;2023-04-16T03:19:30;19.73;;;9.80;;
60488;SDS011;46331;49.252;8.904;2023-04-16T03:20:11;17.03;;;9.07;;
60488;SDS011;46331;49.252;8.904;2023-04-16T03:20:52;33.67;;;19.80;;
60488;SDS011;46331;49.252;8.904;2023-04-16T03:21:32;20.30;;;11.07;;
60488;SDS011;46331;49.252;8.904;2023-04-16T03:22:13;17.15;;;10.48;;
60488;SDS011;46331;49.252;8.904;2023-04-16T03:22:53;29.43;;;16.60;;
60488;SDS011;46331;49.252;8.904;2023-04-16T03:23:34;15.43;;;8.57;;
60488;SDS011;46331;49.252;8.904;2023-04-16T03:24:15;16.45;;;10.88;;
60488;SDS011;46331;49.252;8.904;2023-04-16T03:24:56;16.73;;;10.37;;
60488;SDS011;46331;49.252;8.904;2023-04-16T03:25:37;16.38;;;8.70;;
60488;SDS011;46331;49.252;8.904;2023-04-16T03:26:21;11.05;;;6.25;;
60488;SDS011;46331;49.252;8.904;2023-04-16T03:27:03;10.95;;;5.75;;
60488;SDS011;46331;49.252;8.904;2023-04-16T03:27:43;16.70;;;10.73;;
60488;SDS011;46331;49.252;8.904;2023-04-16T03:28:25;13.37;;;8.33;;
60488;SDS011;46331;49.252;8.904;2023-04-16T03:29:06;20.38;;;14.45;;
60488;SDS011;46331;49.252;8.904;2023-04-16T03:29:46;13.95;;;7.95;;
60488;SDS011;46331;49.252;8.904;2023-04-16T03:30:27;11.57;;;7.83;;
60488;SDS011;46331;49.252;8.904;2023-04-16T03:31:07;11.90;;;7.07;;
60488;SDS011;46331;49.252;8.904;2023-04-16T03:31:49;10.65;;;6.55;;
60488;SDS011;46331;49.252;8.904;2023-04-16T03:32:29;10.20;;;5.75;;
60488;SDS011;46331;49.252;8.904;2023-04-16T03:33:10;10.10;;;5.83;;
60488;SDS011;46331;49.252;8.904;2023-04-16T03:33:51;10.57;;;6.10;;
60488;SDS011;46331;49.252;8.904;2023-04-16T03:34:32;10.35;;;6.28;;
60488;SDS011;46331;49.252;8.904;2023-04-16T03:35:12;10.00;;;5.70;;
60488;SDS011;46331;49.252;8.904;2023-04-16T03:35:56;12.60;;;7.17;;
60488;SDS011;46331;49.252;8.904;2023-04-16T03:36:39;11.43;;;6.47;;
60488;SDS011;46331;49.252;8.904;2023-04-16T03:37:19;10.75;;;6.53;;
60488;SDS011;46331;49.252;8.904;2023-04-16T03:38:00;10.03;;;6.13;;
60488;SDS011;46331;49.252;8.904;2023-04-16T03:38:41;11.93;;;6.32;;
60488;SDS011;46331;49.252;8.904;2023-04-16T03:39:22;12.38;;;6.38;;
60488;SDS011;46331;49.252;8.904;2023-04-16T03:40:02;11.20;;;5.97;;
60488;SDS011;46331;49.252;8.904;2023-04-16T03:40:45;10.48;;;5.65;;
60488;SDS011;46331;49.252;8.904;2023-04-16T03:41:28;10.68;;;6.00;;
60488;SDS011;46331;49.252;8.904;2023-04-16T03:42:08;10.13;;;5.70;;
60488;SDS011;46331;49.252;8.904;2023-04-16T03:42:49;9.93;;;5.53;;
60488;SDS011;46331;49.252;8.904;2023-04-16T03:43:30;10.00;;;5.53;;
60488;SDS011;46331;49.252;8.904;2023-04-16T03:44:11;10.57;;;5.60;;
60488;SDS011;46331;49.252;8.904;2023-04-16T03:44:51;10.07;;;5.67;;
60488;SDS011;46331;49.252;8.904;2023-04-16T03:45:33;10.70;;;5.65;;
60488;SDS011;46331;49.252;8.904;2023-04-16T03:46:14;11.37;;;5.87;;
60488;SDS011;46331;49.252;8.904;2023-04-16T03:46:54;10.55;;;6.13;;
60488;SDS011;46331;49.252;8.904;2023-04-16T03:47:35;10.93;;;5.40;;
60488;SDS011;46331;49.252;8.904;2023-04-16T03:48:17;10.60;;;5.53;;
60488;SDS011;46331;49.252;8.904;2023-04-16T03:48:57;11.05;;;6.18;;
60488;SDS011;46331;49.252;8.904;2023-04-16T03:49:38;10.30;;;5.73;;
60488;SDS011;46331;49.252;8.904;2023-04-16T03:50:20;11.82;;;5.97;;
60488;SDS011;46331;49.252;8.904;2023-04-16T03:51:01;13.27;;;6.80;;
60488;SDS011;46331;49.252;8.904;2023-04-16T03:51:42;12.43;;;6.95;;
60488;SDS011;46331;49.252;8.904;2023-04-16T03:52:23;12.63;;;6.33;;
60488;SDS011;46331;49.252;8.904;2023-04-16T03:53:04;12.02;;;6.15;;
60488;SDS011;46331;49.252;8.904;2023-04-16T03:53:45;12.25;;;6.95;;
60488;SDS011;46331;49.252;8.904;2023-04-16T03:54:27;12.95;;;6.63;;
60488;SDS011;46331;49.252;8.904;2023-04-16T03:55:19;14.60;;;7.43;;
60488;SDS011;46331;49.252;8.904;2023-04-16T03:56:00;11.07;;;6.37;;
60488;SDS011;46331;49.252;8.904;2023-04-16T03:56:41;13.43;;;7.07;;
60488;SDS011;46331;49.252;8.904;2023-04-16T03:57:22;12.63;;;6.88;;
60488;SDS011;46331;49.252;8.904;2023-04-16T03:58:03;12.00;;;6.85;;
60488;SDS011;46331;49.252;8.904;2023-04-16T03:58:45;14.53;;;8.20;;
60488;SDS011;46331;49.252;8.904;2023-04-16T03:59:26;13.98;;;7.15;;
60488;SDS011;46331;49.252;8.904;2023-04-16T04:00:06;14.60;;;7.77;;
60488;SDS011;46331;49.252;8.904;2023-04-16T04:01:06;12.45;;;7.30;;
60488;SDS011;46331;49.252;8.904;2023-04-16T04:01:50;12.85;;;7.20;;
60488;SDS011;46331;49.252;8.904;2023-04-16T04:02:31;11.93;;;7.38;;
60488;SDS011;46331;49.252;8.904;2023-04-16T04:03:12;14.55;;;7.22;;
60488;SDS011;46331;49.252;8.904;2023-04-16T04:03:58;12.73;;;7.35;;
60488;SDS011;46331;49.252;8.904;2023-04-16T04:04:38;12.20;;;6.83;;
60488;SDS011;46331;49.252;8.904;2023-04-16T04:05:19;13.98;;;7.47;;
60488;SDS011;46331;49.252;8.904;2023-04-16T04:06:00;14.20;;;7.22;;
60488;SDS011;46331;49.252;8.904;2023-04-16T04:06:44;14.30;;;7.53;;